Time;durP1;ratioP1;P1;durP2;ratioP2;P2;SDS_P1;SDS_P2;PMS_P1;PMS_P2;Temp;Humidity;BMP_temperature;BMP_pressure;BME280_temperature;BME280_humidity;BME280_pressure;Samples;Min_cycle;Max_cycle;Signal;HPM_P1;HPM_P2
2022/06/18 00:01:44;;;;;;;4.00;2.45;;;18.00;99.90;;;;;;5105834;27;20040;-65
2022/06/18 00:04:17;;;;;;;3.90;2.58;;;17.90;99.90;;;;;;5088494;28;20059;-65
2022/06/18 00:06:59;;;;;;;4.43;2.60;;;17.90;99.90;;;;;;5083387;28;20504;-66
2022/06/18 00:09:35;;;;;;;3.45;2.10;;;17.80;99.90;;;;;;5096955;28;20043;-66
2022/06/18 00:14:55;;;;;;;5.97;3.00;;;18.00;99.90;;;;;;5091514;28;20170;-65
2022/06/18 00:17:20;;;;;;;6.70;3.30;;;18.10;99.90;;;;;;5093592;28;20554;-66
2022/06/18 00:19:47;;;;;;;6.55;3.70;;;18.20;99.90;;;;;;5087634;28;20040;-66
2022/06/18 00:22:15;;;;;;;6.28;3.60;;;18.30;99.90;;;;;;5074582;28;20381;-65
2022/06/18 00:24:41;;;;;;;2.75;2.10;;;18.40;99.90;;;;;;5072487;28;20216;-65
2022/06/18 00:27:13;;;;;;;8.48;3.17;;;18.40;99.90;;;;;;5087757;28;20090;-66
2022/06/18 00:29:39;;;;;;;3.78;2.88;;;18.40;99.90;;;;;;5090372;28;20054;-66
2022/06/18 00:32:06;;;;;;;4.85;2.35;;;18.30;99.90;;;;;;5073959;28;20242;-65
2022/06/18 00:34:31;;;;;;;4.05;2.53;;;18.20;99.90;;;;;;5073608;28;20048;-66
2022/06/18 00:36:58;;;;;;;4.38;3.45;;;18.10;99.90;;;;;;5092350;28;20052;-65
2022/06/18 00:39:24;;;;;;;6.07;3.05;;;18.20;99.90;;;;;;5072828;28;20090;-65
2022/06/18 00:41:53;;;;;;;3.42;2.30;;;18.30;99.90;;;;;;5095949;28;20036;-65
2022/06/18 00:44:31;;;;;;;5.32;3.95;;;18.40;99.90;;;;;;5072339;28;20100;-66
2022/06/18 00:47:22;;;;;;;4.95;2.72;;;18.40;99.90;;;;;;5075519;28;20115;-66
2022/06/18 00:50:06;;;;;;;9.18;3.55;;;18.40;99.90;;;;;;5078465;28;20443;-65
2022/06/18 00:52:41;;;;;;;5.88;4.07;;;18.50;99.90;;;;;;5073492;28;20074;-65
2022/06/18 00:55:21;;;;;;;5.55;2.10;;;18.50;99.90;;;;;;5075511;28;20071;-65
2022/06/18 00:57:56;;;;;;;3.40;2.50;;;18.60;99.90;;;;;;5086755;28;20035;-65
2022/06/18 01:00:28;;;;;;;3.00;2.70;;;18.50;99.90;;;;;;5074403;28;20503;-66
2022/06/18 01:02:55;;;;;;;6.47;3.03;;;18.50;99.90;;;;;;5076056;28;20040;-65
2022/06/18 01:05:36;;;;;;;6.15;2.50;;;18.40;99.90;;;;;;5056598;28;20040;-65
2022/06/18 01:08:13;;;;;;;4.47;2.83;;;18.40;99.90;;;;;;5106416;27;20286;-65
2022/06/18 01:10:42;;;;;;;6.53;3.35;;;18.20;99.90;;;;;;5091338;28;20394;-66
2022/06/18 01:13:13;;;;;;;5.68;4.32;;;18.20;99.90;;;;;;5102776;27;20044;-65
2022/06/18 01:15:41;;;;;;;4.68;4.22;;;18.20;99.90;;;;;;5093524;28;20044;-65
2022/06/18 01:18:07;;;;;;;6.47;4.38;;;18.20;99.90;;;;;;5091108;28;20044;-64
2022/06/18 01:20:43;;;;;;;6.07;3.78;;;18.20;99.90;;;;;;5094685;28;20500;-65
2022/06/18 01:23:32;;;;;;;7.30;4.55;;;18.30;99.90;;;;;;5094632;28;20752;-65
2022/06/18 01:25:58;;;;;;;6.03;4.07;;;18.40;99.90;;;;;;5074721;28;20051;-65
2022/06/18 01:28:24;;;;;;;5.60;4.05;;;18.40;99.90;;;;;;5070859;28;20032;-65
2022/06/18 01:30:50;;;;;;;5.28;4.25;;;18.30;99.90;;;;;;5077183;28;20090;-65
2022/06/18 01:33:16;;;;;;;5.80;4.32;;;18.40;99.90;;;;;;5076645;28;20043;-66
2022/06/18 01:35:46;;;;;;;10.48;4.22;;;18.30;99.90;;;;;;5090494;28;20115;-65
2022/06/18 01:38:12;;;;;;;6.43;4.47;;;18.20;99.90;;;;;;5065156;28;20131;-65
2022/06/18 01:40:56;;;;;;;5.13;4.63;;;18.20;99.90;;;;;;5092657;28;20422;-66
2022/06/18 01:43:23;;;;;;;6.88;4.50;;;18.10;99.90;;;;;;5093947;28;20528;-66
2022/06/18 01:45:55;;;;;;;6.68;4.15;;;18.00;99.90;;;;;;5077136;28;20075;-65
2022/06/18 01:48:30;;;;;;;4.57;4.22;;;17.90;99.90;;;;;;5070726;28;20044;-65
2022/06/18 01:51:10;;;;;;;4.85;4.40;;;17.80;99.90;;;;;;5077146;28;20040;-65
2022/06/18 01:53:43;;;;;;;6.50;4.03;;;17.90;99.90;;;;;;5091478;28;20129;-65
2022/06/18 01:56:18;;;;;;;6.43;4.60;;;17.80;99.90;;;;;;5073904;28;20097;-65
2022/06/18 01:58:54;;;;;;;6.65;4.60;;;17.70;99.90;;;;;;5073046;28;20481;-65
2022/06/18 02:01:29;;;;;;;5.75;5.13;;;17.60;99.90;;;;;;5111672;27;20027;-65
2022/06/18 02:03:58;;;;;;;5.30;4.80;;;17.60;99.90;;;;;;5090977;28;20020;-65
2022/06/18 02:06:25;;;;;;;5.07;4.57;;;17.60;99.90;;;;;;5088093;28;20039;-65
2022/06/18 02:08:51;;;;;;;6.50;5.63;;;17.50;99.90;;;;;;5039230;28;20047;-66
2022/06/18 02:11:19;;;;;;;5.97;4.40;;;17.50;99.90;;;;;;5092210;28;20520;-65
2022/06/18 02:13:52;;;;;;;9.75;5.28;;;17.50;99.90;;;;;;5105462;27;20063;-66
2022/06/18 02:16:21;;;;;;;7.47;5.28;;;17.50;99.90;;;;;;5076741;28;20050;-65
2022/06/18 02:18:48;;;;;;;6.60;5.30;;;17.40;99.90;;;;;;5077103;28;20093;-66
2022/06/18 02:21:16;;;;;;;6.80;4.97;;;17.50;99.90;;;;;;5075245;28;20473;-66
2022/06/18 02:23:42;;;;;;;8.20;5.50;;;17.50;99.90;;;;;;5069256;28;20062;-65
2022/06/18 02:26:08;;;;;;;7.60;5.35;;;17.50;99.90;;;;;;5076172;28;20474;-65
2022/06/18 02:28:40;;;;;;;7.75;5.45;;;17.60;99.90;;;;;;5063329;28;20645;-65
2022/06/18 02:31:10;;;;;;;5.85;5.35;;;17.60;99.90;;;;;;5092346;28;20392;-65
2022/06/18 02:33:47;;;;;;;7.97;5.78;;;17.60;99.90;;;;;;5093130;28;20108;-66
2022/06/18 02:36:23;;;;;;;11.80;5.53;;;17.70;99.90;;;;;;5063640;28;20036;-65
2022/06/18 02:38:57;;;;;;;7.45;5.80;;;17.70;99.90;;;;;;5092578;28;20040;-65
2022/06/18 02:41:24;;;;;;;8.25;5.57;;;17.70;99.90;;;;;;5105615;27;20050;-65
2022/06/18 02:43:50;;;;;;;5.95;5.40;;;17.70;99.90;;;;;;5106558;27;20032;-66
2022/06/18 02:46:16;;;;;;;11.18;5.45;;;17.70;99.90;;;;;;5074881;28;20035;-66
2022/06/18 02:48:42;;;;;;;6.32;5.38;;;17.70;99.90;;;;;;5074128;28;20092;-65
2022/06/18 02:51:10;;;;;;;7.20;5.50;;;17.70;99.90;;;;;;5105899;27;20654;-65
2022/06/18 02:53:36;;;;;;;6.07;5.53;;;17.70;99.90;;;;;;5071866;28;20044;-65
2022/06/18 02:56:06;;;;;;;10.35;5.80;;;17.70;99.90;;;;;;5092605;28;20093;-66
2022/06/18 02:58:35;;;;;;;7.47;5.35;;;17.70;99.90;;;;;;5104165;27;20036;-65
2022/06/18 03:01:05;;;;;;;7.30;6.15;;;17.60;99.90;;;;;;5104703;27;20040;-65
2022/06/18 03:03:35;;;;;;;6.15;5.53;;;17.70;99.90;;;;;;5066345;28;20043;-66
2022/06/18 03:06:01;;;;;;;8.98;6.95;;;17.70;99.90;;;;;;5072233;28;20055;-66
2022/06/18 03:08:29;;;;;;;8.10;6.15;;;17.80;99.90;;;;;;5072365;28;20269;-65
2022/06/18 03:13:39;;;;;;;6.57;5.97;;;17.70;99.90;;;;;;5074363;28;20067;-65
2022/06/18 03:16:11;;;;;;;9.25;6.95;;;17.70;99.90;;;;;;5075389;28;20040;-65
2022/06/18 03:18:39;;;;;;;9.25;6.43;;;17.70;99.90;;;;;;5074146;28;20097;-65
2022/06/18 03:21:29;;;;;;;9.30;6.18;;;17.80;99.90;;;;;;5069754;28;20071;-65
2022/06/18 03:23:54;;;;;;;10.52;6.68;;;17.80;99.90;;;;;;5092110;28;20489;-65
2022/06/18 03:26:20;;;;;;;8.13;6.30;;;17.80;99.90;;;;;;5072072;28;20047;-66
2022/06/18 03:28:46;;;;;;;9.73;6.13;;;17.80;99.90;;;;;;5089224;28;21192;-66
2022/06/18 03:31:12;;;;;;;6.85;6.25;;;17.90;99.90;;;;;;5053394;28;20059;-65
2022/06/18 03:33:38;;;;;;;6.40;5.72;;;17.90;99.90;;;;;;5088627;28;20432;-65
2022/06/18 03:36:05;;;;;;;11.30;6.93;;;17.90;99.90;;;;;;5092652;28;20043;-65
2022/06/18 03:38:31;;;;;;;9.25;6.57;;;17.90;99.90;;;;;;5088214;28;20036;-65
2022/06/18 03:40:57;;;;;;;7.32;6.00;;;18.00;99.90;;;;;;5090618;28;20386;-65
2022/06/18 03:43:24;;;;;;;9.15;6.45;;;18.00;99.90;;;;;;5091001;28;20038;-66
2022/06/18 03:46:00;;;;;;;10.90;6.38;;;18.00;99.90;;;;;;5094159;28;20036;-66
2022/06/18 03:48:44;;;;;;;11.70;7.30;;;18.10;99.90;;;;;;5070235;28;20527;-65
2022/06/18 03:51:11;;;;;;;7.88;6.72;;;18.10;99.90;;;;;;5104377;27;20093;-65
2022/06/18 03:53:37;;;;;;;12.25;6.47;;;18.10;99.90;;;;;;5069845;28;20457;-65
2022/06/18 03:56:03;;;;;;;14.85;6.95;;;18.20;99.90;;;;;;5093272;28;20040;-66
2022/06/18 03:58:28;;;;;;;10.85;6.90;;;18.20;99.90;;;;;;5086839;28;20040;-65
2022/06/18 04:00:55;;;;;;;8.23;6.43;;;18.30;99.90;;;;;;5073042;28;20040;-65
2022/06/18 04:03:20;;;;;;;10.38;7.00;;;18.30;99.90;;;;;;5086938;28;20381;-66
2022/06/18 04:05:46;;;;;;;9.25;6.70;;;18.30;99.90;;;;;;5070896;28;20088;-65
2022/06/18 04:08:14;;;;;;;9.38;6.07;;;18.40;99.90;;;;;;5074354;28;20039;-65
2022/06/18 04:10:40;;;;;;;10.20;6.85;;;18.60;99.90;;;;;;5092694;28;20147;-66
2022/06/18 04:13:06;;;;;;;14.25;7.35;;;18.80;99.90;;;;;;5054981;28;20047;-65
2022/06/18 04:15:32;;;;;;;14.50;7.50;;;18.90;99.90;;;;;;5070493;28;20036;-66
2022/06/18 04:17:58;;;;;;;13.13;7.57;;;18.90;99.90;;;;;;5090492;28;20044;-66
2022/06/18 04:20:34;;;;;;;13.38;7.45;;;19.00;99.90;;;;;;5069006;28;20505;-65
2022/06/18 04:23:01;;;;;;;14.35;6.90;;;19.10;99.90;;;;;;5091349;28;20516;-66
2022/06/18 04:25:27;;;;;;;9.75;6.70;;;19.20;99.90;;;;;;5074442;28;20036;-66
2022/06/18 04:27:57;;;;;;;12.85;7.63;;;19.30;99.90;;;;;;5069466;28;20040;-66
2022/06/18 04:30:26;;;;;;;12.75;8.20;;;19.50;99.90;;;;;;5072950;28;20044;-66
2022/06/18 04:32:52;;;;;;;14.63;7.47;;;19.70;99.90;;;;;;5088663;28;20043;-66
2022/06/18 04:35:18;;;;;;;13.38;7.30;;;20.00;99.90;;;;;;5085642;28;20038;-66
2022/06/18 04:37:44;;;;;;;10.13;7.55;;;20.50;99.90;;;;;;5106698;28;20765;-66
2022/06/18 04:40:14;;;;;;;16.05;7.68;;;21.10;99.90;;;;;;5088931;28;20048;-66
2022/06/18 04:42:40;;;;;;;12.68;7.90;;;21.60;99.90;;;;;;5069953;28;20032;-66
2022/06/18 04:45:06;;;;;;;14.65;7.97;;;22.10;99.90;;;;;;5071250;28;20737;-66
2022/06/18 04:47:32;;;;;;;17.20;8.70;;;22.50;99.90;;;;;;5087280;28;20419;-66
2022/06/18 04:49:58;;;;;;;11.57;8.02;;;22.90;99.90;;;;;;5089214;28;20108;-66
2022/06/18 04:52:24;;;;;;;16.27;8.60;;;23.40;99.90;;;;;;5069209;28;20047;-66
2022/06/18 04:54:52;;;;;;;20.10;9.25;;;23.80;99.90;;;;;;5071694;28;20497;-66
2022/06/18 04:57:21;;;;;;;18.02;9.55;;;24.10;99.90;;;;;;5088753;28;20044;-66
2022/06/18 04:59:47;;;;;;;17.40;8.07;;;24.50;99.90;;;;;;5092895;28;20435;-68
2022/06/18 05:02:25;;;;;;;18.85;7.55;;;24.70;99.90;;;;;;5090665;28;20032;-66
2022/06/18 05:04:51;;;;;;;13.63;8.07;;;25.10;99.90;;;;;;5068429;28;20044;-66
2022/06/18 05:07:16;;;;;;;14.95;7.60;;;25.40;99.90;;;;;;5072989;28;20058;-66
2022/06/18 05:09:43;;;;;;;15.07;7.85;;;25.60;99.90;;;;;;5085707;28;20046;-66
2022/06/18 05:12:09;;;;;;;13.30;7.57;;;26.00;99.90;;;;;;5091014;28;20067;-66
2022/06/18 05:14:34;;;;;;;15.38;7.40;;;26.20;99.90;;;;;;5075354;28;20414;-66
2022/06/18 05:17:02;;;;;;;12.85;7.47;;;26.40;99.90;;;;;;5091196;28;20044;-66
2022/06/18 05:19:33;;;;;;;12.95;7.75;;;26.70;99.90;;;;;;5093963;28;20142;-66
2022/06/18 05:21:59;;;;;;;18.65;8.23;;;26.90;99.90;;;;;;5092089;28;20393;-66
2022/06/18 05:24:25;;;;;;;14.80;8.20;;;26.70;99.90;;;;;;5090449;28;20024;-66
2022/06/18 05:26:54;;;;;;;13.32;7.95;;;26.20;99.90;;;;;;5094961;28;20028;-66
2022/06/18 05:29:21;;;;;;;14.55;7.10;;;26.00;99.90;;;;;;5070152;28;20046;-66
2022/06/18 05:31:47;;;;;;;17.33;8.15;;;25.70;99.90;;;;;;5081658;28;20040;-66
2022/06/18 05:34:13;;;;;;;14.65;8.02;;;25.40;99.90;;;;;;5093254;28;20051;-66
2022/06/18 05:36:39;;;;;;;13.25;8.07;;;25.20;99.90;;;;;;5080305;28;20046;-66
2022/06/18 05:39:06;;;;;;;18.48;8.88;;;24.90;99.90;;;;;;5090091;28;20028;-66
2022/06/18 05:41:32;;;;;;;17.13;9.77;;;24.90;99.90;;;;;;5059103;28;20040;-66
2022/06/18 05:43:58;;;;;;;18.30;9.88;;;24.80;99.90;;;;;;5069211;28;20039;-66
2022/06/18 05:46:24;;;;;;;15.52;7.80;;;24.70;99.90;;;;;;5093062;28;20027;-66
2022/06/18 05:48:50;;;;;;;19.05;9.45;;;24.80;99.90;;;;;;5071234;28;20045;-66
2022/06/18 05:51:16;;;;;;;12.40;8.00;;;24.80;99.90;;;;;;5070753;28;20435;-66
2022/06/18 05:53:42;;;;;;;20.77;9.45;;;24.80;99.90;;;;;;5064539;28;20075;-66
2022/06/18 05:56:09;;;;;;;15.73;8.63;;;24.90;99.90;;;;;;5076839;28;20750;-66
2022/06/18 05:58:35;;;;;;;14.10;9.55;;;24.90;99.90;;;;;;5054696;28;20040;-66
2022/06/18 06:01:00;;;;;;;27.40;10.23;;;25.00;99.90;;;;;;5070021;28;20446;-66
2022/06/18 06:03:26;;;;;;;17.92;9.32;;;24.90;99.90;;;;;;5102034;27;20047;-66
2022/06/18 06:05:52;;;;;;;15.27;9.18;;;25.00;99.90;;;;;;5073289;28;20059;-66
2022/06/18 06:08:17;;;;;;;16.05;9.85;;;25.00;99.90;;;;;;5088722;28;20127;-66
2022/06/18 06:13:29;;;;;;;17.92;9.45;;;25.00;99.90;;;;;;5084526;28;20044;-66
2022/06/18 06:15:55;;;;;;;18.38;8.95;;;25.00;99.90;;;;;;5069857;28;20512;-66
2022/06/18 06:18:22;;;;;;;22.58;10.55;;;25.20;99.90;;;;;;5096283;27;20051;-66
2022/06/18 06:20:51;;;;;;;17.42;9.85;;;25.10;99.90;;;;;;5087869;28;20659;-66
2022/06/18 06:23:17;;;;;;;15.38;8.50;;;25.20;99.90;;;;;;5100524;27;20114;-66
2022/06/18 06:25:45;;;;;;;15.65;8.15;;;25.30;99.90;;;;;;5096238;27;20028;-66
2022/06/18 06:28:22;;;;;;;13.77;9.02;;;25.30;99.90;;;;;;5076551;28;20163;-66
2022/06/18 06:30:49;;;;;;;20.95;9.30;;;25.40;99.90;;;;;;5077374;28;20503;-66
2022/06/18 06:33:15;;;;;;;19.60;8.88;;;25.50;99.90;;;;;;5072288;28;20048;-66
2022/06/18 06:35:42;;;;;;;17.63;9.65;;;25.60;99.90;;;;;;5074454;28;20043;-66
2022/06/18 06:38:09;;;;;;;15.05;9.35;;;25.60;99.90;;;;;;5072320;28;20502;-66
2022/06/18 06:40:36;;;;;;;12.90;7.57;;;25.70;99.90;;;;;;5087350;28;20063;-66
2022/06/18 06:43:02;;;;;;;12.70;8.05;;;25.80;99.90;;;;;;5094367;28;20127;-66
2022/06/18 06:45:30;;;;;;;11.85;7.30;;;25.60;99.90;;;;;;5073613;28;20588;-66
2022/06/18 06:47:57;;;;;;;13.20;7.53;;;25.70;99.90;;;;;;5093702;28;20123;-66
2022/06/18 06:50:24;;;;;;;10.68;7.38;;;25.80;99.90;;;;;;5076693;28;20595;-66
2022/06/18 06:52:50;;;;;;;15.40;7.32;;;25.90;99.90;;;;;;5091978;28;20086;-66
2022/06/18 06:58:13;;;;;;;16.90;7.07;;;26.00;99.90;;;;;;5088511;28;20044;-65
2022/06/18 07:00:46;;;;;;;13.35;7.13;;;26.10;99.90;;;;;;5073699;28;20393;-66
2022/06/18 07:03:13;;;;;;;16.58;6.28;;;26.20;99.90;;;;;;5065158;28;20543;-66
2022/06/18 07:05:39;;;;;;;13.70;6.53;;;26.20;99.90;;;;;;5104824;27;20043;-66
2022/06/18 07:08:05;;;;;;;17.05;6.32;;;26.20;99.90;;;;;;5090602;28;20047;-66
2022/06/18 07:10:31;;;;;;;10.77;5.68;;;26.30;99.90;;;;;;5070822;28;22024;-66
2022/06/18 07:12:56;;;;;;;17.73;5.85;;;26.30;99.90;;;;;;5091852;28;20043;-66
2022/06/18 07:15:22;;;;;;;11.27;4.72;;;26.30;99.90;;;;;;5096133;28;20040;-66
2022/06/18 07:17:48;;;;;;;8.57;4.80;;;26.40;99.90;;;;;;5088525;28;20123;-66
2022/06/18 07:20:16;;;;;;;10.32;5.13;;;26.50;99.90;;;;;;5054514;28;20051;-66
2022/06/18 07:22:41;;;;;;;8.00;3.78;;;26.60;99.90;;;;;;5070571;28;20108;-66
2022/06/18 07:25:08;;;;;;;9.05;3.80;;;26.70;99.90;;;;;;5094054;28;20027;-66
2022/06/18 07:27:35;;;;;;;9.10;3.20;;;26.80;99.90;;;;;;5076721;28;20040;-66
2022/06/18 07:30:01;;;;;;;13.95;3.95;;;26.90;99.90;;;;;;5075085;28;20047;-66
2022/06/18 07:32:26;;;;;;;7.38;3.88;;;27.00;99.90;;;;;;5072135;28;20051;-66
2022/06/18 07:34:55;;;;;;;9.32;3.20;;;27.00;99.90;;;;;;5073672;28;20996;-66
2022/06/18 07:37:21;;;;;;;14.07;4.93;;;27.10;99.90;;;;;;5074395;28;20051;-66
2022/06/18 07:39:47;;;;;;;11.18;4.03;;;27.20;99.90;;;;;;5092920;28;20072;-66
2022/06/18 07:42:18;;;;;;;6.88;3.25;;;27.20;99.90;;;;;;5092217;28;20083;-66
2022/06/18 07:44:44;;;;;;;8.18;2.95;;;27.20;99.90;;;;;;5068833;28;20040;-66
2022/06/18 07:47:18;;;;;;;7.18;2.95;;;27.30;99.90;;;;;;5075110;28;20715;-66
2022/06/18 07:49:45;;;;;;;13.68;3.13;;;27.20;99.90;;;;;;5085362;28;20382;-66
2022/06/18 07:52:13;;;;;;;6.60;2.88;;;27.40;99.90;;;;;;5088721;28;20459;-66
2022/06/18 07:54:40;;;;;;;9.68;3.50;;;27.40;99.90;;;;;;5087698;28;20047;-66
2022/06/18 07:57:06;;;;;;;8.43;3.00;;;27.30;99.90;;;;;;5069383;28;20046;-66
2022/06/18 07:59:32;;;;;;;5.53;2.38;;;27.40;99.90;;;;;;5085654;28;20047;-66
2022/06/18 08:01:58;;;;;;;7.88;3.30;;;27.50;99.90;;;;;;5073026;28;20048;-66
2022/06/18 08:04:24;;;;;;;9.82;3.42;;;27.70;99.90;;;;;;5090112;28;20119;-66
2022/06/18 08:06:50;;;;;;;10.02;3.67;;;27.60;99.90;;;;;;5090137;28;20046;-66
2022/06/18 08:09:15;;;;;;;6.72;3.03;;;27.60;99.90;;;;;;5068095;28;20040;-66
2022/06/18 08:11:42;;;;;;;11.38;3.20;;;27.60;99.90;;;;;;5084053;28;20062;-66
2022/06/18 08:14:09;;;;;;;7.93;2.85;;;27.50;99.90;;;;;;5072344;28;20044;-67
2022/06/18 08:16:35;;;;;;;9.63;2.60;;;27.60;99.90;;;;;;5066812;28;20047;-66
2022/06/18 08:19:01;;;;;;;6.15;2.38;;;27.60;99.90;;;;;;5078267;28;20389;-68
2022/06/18 08:21:34;;;;;;;8.63;2.60;;;27.50;99.90;;;;;;5059501;28;20036;-67
2022/06/18 08:24:10;;;;;;;15.45;2.75;;;27.70;99.90;;;;;;5059181;28;20040;-68
2022/06/18 08:26:38;;;;;;;6.30;2.53;;;27.80;99.90;;;;;;5077605;28;20085;-69
2022/06/18 08:29:07;;;;;;;18.48;3.78;;;27.90;99.90;;;;;;5080916;28;21364;-68
2022/06/18 08:31:33;;;;;;;548.10;71.03;;;27.90;99.90;;;;;;5078277;28;20112;-71
2022/06/18 08:33:58;;;;;;;13.45;4.32;;;27.70;99.90;;;;;;5057022;28;20093;-70
2022/06/18 08:36:25;;;;;;;25.83;3.53;;;27.70;99.90;;;;;;5078999;28;20067;-69
2022/06/18 08:38:53;;;;;;;135.02;8.32;;;27.70;99.90;;;;;;5081261;28;20044;-69
2022/06/18 08:41:54;;;;;;;21.65;2.70;;;27.80;99.90;;;;;;5059457;28;20035;-70
2022/06/18 08:44:45;;;;;;;6.65;2.28;;;27.90;99.90;;;;;;5053502;28;20089;-66
2022/06/18 08:47:36;;;;;;;15.63;3.53;;;28.00;99.90;;;;;;5077880;28;20035;-67
2022/06/18 08:50:25;;;;;;;8.10;2.83;;;28.10;99.90;;;;;;5094186;27;20044;-67
2022/06/18 08:53:09;;;;;;;8.20;3.15;;;28.30;99.90;;;;;;5084255;28;21012;-67
2022/06/18 08:55:53;;;;;;;8.60;3.30;;;28.30;99.90;;;;;;5080042;28;20860;-67
2022/06/18 08:58:30;;;;;;;5.90;2.30;;;28.40;99.90;;;;;;5064764;28;20067;-66
2022/06/18 09:01:09;;;;;;;6.97;2.92;;;28.50;99.90;;;;;;5081722;28;20051;-66
2022/06/18 09:03:41;;;;;;;9.77;3.42;;;28.60;99.90;;;;;;5067564;28;20173;-68
2022/06/18 09:06:16;;;;;;;5.05;2.15;;;28.80;99.90;;;;;;5083251;28;20044;-68
2022/06/18 09:08:50;;;;;;;;;;;28.90;99.90;;;;;;5063148;28;20032;-67
2022/06/18 09:11:41;;;;;;;11.18;3.00;;;29.00;99.90;;;;;;5065686;28;19934;-68
2022/06/18 09:14:26;;;;;;;6.20;2.58;;;28.90;99.90;;;;;;5062898;28;20055;-67
2022/06/18 09:17:08;;;;;;;11.45;3.25;;;29.00;99.90;;;;;;5081492;28;20036;-67
2022/06/18 09:19:37;;;;;;;18.42;3.17;;;29.00;99.90;;;;;;5093448;27;20043;-68
2022/06/18 09:22:09;;;;;;;21.17;4.63;;;29.10;99.90;;;;;;5076401;28;20048;-67
2022/06/18 09:24:41;;;;;;;8.23;3.45;;;29.10;99.90;;;;;;5068957;28;20035;-68
2022/06/18 09:27:13;;;;;;;7.50;3.08;;;29.20;99.90;;;;;;5098267;27;20556;-68
2022/06/18 09:30:15;;;;;;;8.50;3.45;;;29.20;99.90;;;;;;5083700;28;20048;-69
2022/06/18 09:33:04;;;;;;;8.32;2.67;;;29.20;99.90;;;;;;5083344;28;20048;-68
2022/06/18 09:35:34;;;;;;;11.48;3.15;;;29.20;99.90;;;;;;5077863;28;20058;-67
2022/06/18 09:38:25;;;;;;;7.07;2.75;;;29.20;99.90;;;;;;5066415;28;20523;-67
2022/06/18 09:40:53;;;;;;;6.53;2.75;;;29.20;99.90;;;;;;5056030;28;20044;-68
2022/06/18 09:43:42;;;;;;;6.43;2.35;;;29.10;99.90;;;;;;5063640;28;20564;-67
2022/06/18 09:46:33;;;;;;;9.30;2.50;;;29.10;99.90;;;;;;5062197;28;20048;-67
2022/06/18 09:48:58;;;;;;;6.22;2.55;;;29.10;99.90;;;;;;5062541;28;20047;-65
2022/06/18 09:51:49;;;;;;;7.40;2.50;;;29.10;99.90;;;;;;5081616;28;20678;-65
2022/06/18 09:54:17;;;;;;;8.82;2.38;;;29.20;99.90;;;;;;5081189;28;20036;-65
2022/06/18 09:56:52;;;;;;;10.02;3.15;;;29.10;99.90;;;;;;5086176;28;20055;-65
2022/06/18 09:59:33;;;;;;;16.33;3.70;;;29.10;99.90;;;;;;5079700;28;20839;-66
2022/06/18 10:02:00;;;;;;;4.57;2.60;;;29.00;99.90;;;;;;5089192;27;20131;-65
2022/06/18 10:07:11;;;;;;;6.22;2.78;;;28.90;99.90;;;;;;5055647;28;20051;-66
2022/06/18 10:09:45;;;;;;;7.05;2.40;;;28.90;99.90;;;;;;5057652;28;21061;-65
2022/06/18 10:12:19;;;;;;;11.07;3.13;;;28.60;99.90;;;;;;5058970;28;20084;-64
2022/06/18 10:14:45;;;;;;;9.13;2.83;;;28.50;99.90;;;;;;5055177;28;20046;-65
2022/06/18 10:17:30;;;;;;;8.20;2.90;;;28.30;99.90;;;;;;5086788;27;20040;-64
2022/06/18 10:20:12;;;;;;;6.60;2.72;;;28.30;99.90;;;;;;5054153;28;20127;-64
2022/06/18 10:23:05;;;;;;;6.60;2.28;;;28.40;99.90;;;;;;5091136;27;20138;-65
2022/06/18 10:26:01;;;;;;;7.75;2.40;;;28.50;99.90;;;;;;5074007;28;20185;-65
2022/06/18 10:28:29;;;;;;;;;;;28.60;99.90;;;;;;5072054;28;21597;-65
2022/06/18 10:31:11;;;;;;;8.95;2.30;;;28.70;99.90;;;;;;5074172;28;19977;-65
2022/06/18 10:34:02;;;;;;;9.52;2.22;;;28.70;99.90;;;;;;5072001;28;20039;-64
2022/06/18 10:36:33;;;;;;;5.50;1.80;;;28.60;99.90;;;;;;5045544;28;20078;-65
2022/06/18 10:39:20;;;;;;;9.63;1.63;;;28.40;99.90;;;;;;5055597;28;20051;-63
2022/06/18 10:42:01;;;;;;;8.10;2.25;;;28.40;99.90;;;;;;5048829;28;20052;-64
2022/06/18 10:44:47;;;;;;;11.40;2.50;;;28.50;99.90;;;;;;5074964;28;20080;-65
2022/06/18 10:47:17;;;;;;;5.40;1.77;;;28.60;99.90;;;;;;5036843;28;20055;-65
2022/06/18 10:49:44;;;;;;;7.05;2.28;;;28.60;99.90;;;;;;5076884;28;20060;-65
2022/06/18 10:52:17;;;;;;;4.97;1.90;;;28.70;99.90;;;;;;5068463;28;20090;-64
2022/06/18 10:54:43;;;;;;;6.85;1.75;;;28.60;99.90;;;;;;5069314;28;20086;-65
2022/06/18 10:57:23;;;;;;;5.85;2.00;;;28.50;99.90;;;;;;5045325;28;20044;-64
2022/06/18 11:12:06;;;;;;;6.93;1.98;;;28.90;99.90;;;;;;5107914;27;20491;-67
2022/06/18 11:14:42;;;;;;;3.17;1.70;;;29.10;99.90;;;;;;5091555;28;20039;-68
2022/06/18 11:17:27;;;;;;;3.33;1.05;;;29.20;99.90;;;;;;5088760;28;20043;-68
2022/06/18 11:19:53;;;;;;;2.22;0.88;;;29.20;99.90;;;;;;5075641;28;20048;-68
2022/06/18 11:22:27;;;;;;;3.53;1.10;;;29.10;99.90;;;;;;5100710;28;20567;-68
2022/06/18 11:24:58;;;;;;;8.48;1.50;;;29.20;99.90;;;;;;5084306;28;20049;-68
2022/06/18 11:27:29;;;;;;;4.50;1.50;;;28.90;99.90;;;;;;5098082;28;20040;-67
2022/06/18 11:29:55;;;;;;;2.88;1.10;;;28.70;99.90;;;;;;5099285;28;20050;-67
2022/06/18 11:32:34;;;;;;;4.90;1.20;;;28.60;99.90;;;;;;5085914;28;20040;-68
2022/06/18 11:35:08;;;;;;;6.25;1.42;;;28.50;99.90;;;;;;5103770;27;20574;-68
2022/06/18 11:37:34;;;;;;;4.20;1.73;;;28.00;99.90;;;;;;5097184;28;20032;-67
2022/06/18 11:40:06;;;;;;;5.97;1.60;;;27.90;99.90;;;;;;5083757;28;20302;-67
2022/06/18 11:42:43;;;;;;;7.55;1.30;;;27.90;99.90;;;;;;5100869;28;20051;-68
2022/06/18 11:45:15;;;;;;;3.10;1.02;;;27.80;99.90;;;;;;5084087;28;20382;-68
2022/06/18 11:48:23;;;;;;;3.72;1.02;;;27.70;99.90;;;;;;5082976;28;20059;-67
2022/06/18 11:51:09;;;;;;;3.17;1.20;;;27.60;99.90;;;;;;5096365;28;20039;-67
2022/06/18 11:53:57;;;;;;;3.90;1.15;;;27.60;99.90;;;;;;5079579;28;20039;-67
2022/06/18 11:56:27;;;;;;;3.55;1.10;;;27.50;99.90;;;;;;5073870;28;20044;-67
2022/06/18 11:59:09;;;;;;;2.65;1.35;;;27.50;99.90;;;;;;5093003;28;20096;-68
2022/06/18 12:01:40;;;;;;;4.25;1.63;;;27.70;99.90;;;;;;5077752;28;20047;-68
2022/06/18 12:04:24;;;;;;;2.88;1.38;;;27.60;99.90;;;;;;5083683;28;20043;-67
2022/06/18 12:06:56;;;;;;;3.92;1.20;;;27.50;99.90;;;;;;5081053;28;20568;-67
2022/06/18 12:09:23;;;;;;;4.03;1.02;;;27.40;99.90;;;;;;5096511;28;20043;-68
2022/06/18 12:12:30;;;;;;;5.38;1.63;;;27.20;99.90;;;;;;5085097;28;20047;-67
2022/06/18 12:15:06;;;;;;;5.20;1.30;;;27.10;99.90;;;;;;5062492;28;20100;-67
2022/06/18 12:18:04;;;;;;;4.47;0.98;;;27.10;99.90;;;;;;5085090;28;20062;-67
2022/06/18 12:20:44;;;;;;;3.20;1.40;;;26.70;99.90;;;;;;5081737;28;20445;-67
2022/06/18 12:23:52;;;;;;;4.15;1.30;;;26.40;99.90;;;;;;5087684;28;20116;-67
2022/06/18 12:26:40;;;;;;;2.75;1.25;;;26.10;99.90;;;;;;5064947;28;20418;-67
2022/06/18 12:29:20;;;;;;;2.60;1.10;;;26.00;99.90;;;;;;5080247;28;20164;-67
2022/06/18 12:32:16;;;;;;;5.65;1.30;;;26.00;99.90;;;;;;5089293;28;20236;-67
2022/06/18 12:35:03;;;;;;;3.42;0.90;;;25.80;99.90;;;;;;5050866;28;20110;-67
2022/06/18 12:38:06;;;;;;;4.68;1.25;;;26.20;99.90;;;;;;5087628;28;20947;-67
2022/06/18 12:41:38;;;;;;;3.50;1.20;;;26.30;99.90;;;;;;5088056;28;20039;-67
2022/06/18 12:44:31;;;;;;;2.45;1.05;;;26.60;99.90;;;;;;5034442;28;20048;-67
2022/06/18 12:47:06;;;;;;;1.50;0.80;;;26.70;99.90;;;;;;5067034;28;20059;-67
2022/06/18 12:49:50;;;;;;;4.93;1.23;;;26.90;99.90;;;;;;5066211;28;20059;-67
2022/06/18 12:52:43;;;;;;;3.22;1.00;;;26.90;99.90;;;;;;5070005;28;20075;-67
2022/06/18 12:55:22;;;;;;;4.50;1.10;;;27.00;99.90;;;;;;5081941;28;20051;-67
2022/06/18 12:58:17;;;;;;;3.30;1.00;;;27.10;99.90;;;;;;5086034;28;20047;-67
2022/06/18 13:01:06;;;;;;;4.90;1.20;;;27.30;99.90;;;;;;5086766;28;20575;-67
2022/06/18 13:03:47;;;;;;;3.53;1.00;;;27.40;99.90;;;;;;5081937;28;20039;-68
2022/06/18 13:06:24;;;;;;;6.05;1.10;;;27.50;99.90;;;;;;5088510;28;20196;-68
2022/06/18 13:09:06;;;;;;;9.57;3.00;;;27.50;99.90;;;;;;5067135;28;20044;-68
2022/06/18 13:11:41;;;;;;;4.38;1.25;;;27.40;99.90;;;;;;5067291;28;20086;-67
2022/06/18 13:14:28;;;;;;;2.85;0.60;;;27.40;99.90;;;;;;5087702;28;20040;-67
2022/06/18 13:16:59;;;;;;;2.55;1.23;;;27.40;99.90;;;;;;5085448;28;20070;-68
2022/06/18 13:19:34;;;;;;;3.80;0.68;;;27.40;99.90;;;;;;5088229;28;20028;-68
2022/06/18 13:22:01;;;;;;;4.60;0.85;;;27.30;99.90;;;;;;5057293;28;20047;-68
2022/06/18 13:30:51;;;;;;;1.98;0.60;;;27.30;99.90;;;;;;4996317;28;20536;-68
2022/06/18 13:33:52;;;;;;;2.30;0.65;;;27.20;99.90;;;;;;4974613;28;20160;-68
2022/06/18 13:36:36;;;;;;;2.67;0.52;;;27.20;99.90;;;;;;5069023;28;20048;-68
2022/06/18 13:39:17;;;;;;;1.85;0.60;;;27.30;99.90;;;;;;5078277;28;20039;-67
2022/06/18 13:41:55;;;;;;;1.80;0.80;;;27.30;99.90;;;;;;5067199;28;20051;-68
2022/06/18 13:44:21;;;;;;;7.57;1.60;;;27.20;99.90;;;;;;5085371;28;20047;-67